Home > Products > Valid Products > MTR

000
SAUS43 KAPX 280155
MTRAPN
METAR KAPN 280154Z AUTO 25003KT 10SM CLR M18/M22 A3051 RMK AO2
SLP352 T11781217





000
SAUS43 KAPX 280055
MTRAPN
METAR KAPN 280054Z AUTO 00000KT 10SM CLR M14/M20 A3049 RMK AO2
SLP348 T11441200





000
SAUS43 KAPX 280055
MTRAPN
METAR KAPN 280054Z AUTO 00000KT 10SM CLR M14/M20 A3049 RMK AO2
SLP348 T11441200





000
SAUS43 KAPX 272355
MTRAPN
METAR KAPN 272354Z AUTO 27003KT 10SM CLR M09/M18 A3047 RMK AO2
SLP342 60000 T10941183 11067 21094 53010





000
SAUS43 KAPX 272355
MTRAPN
METAR KAPN 272354Z AUTO 27003KT 10SM CLR M09/M18 A3047 RMK AO2
SLP342 60000 T10941183 11067 21094 53010





000
SAUS43 KAPX 272255
MTRAPN
METAR KAPN 272254Z AUTO 27006KT 10SM CLR M08/M18 A3046 RMK AO2 UPE01
SLP336 P0000 T10781183





000
SAUS43 KAPX 272255
MTRAPN
METAR KAPN 272254Z AUTO 27006KT 10SM CLR M08/M18 A3046 RMK AO2 UPE01
SLP336 P0000 T10781183





000
SAUS43 KAPX 272155
MTRAPN
METAR KAPN 272154Z AUTO 25008G15KT 10SM UP CLR M07/M18 A3045 RMK AO2
SLP331 P0000 T10721183





000
SAUS43 KAPX 272155
MTRAPN
METAR KAPN 272154Z AUTO 25008G15KT 10SM UP CLR M07/M18 A3045 RMK AO2
SLP331 P0000 T10721183





000
SAUS43 KAPX 272055
MTRAPN
METAR KAPN 272054Z AUTO 23007KT 10SM UP CLR M07/M18 A3044 RMK AO2
SLP327 P0000 60000 T10721183 55003





000
SAUS43 KAPX 272055
MTRAPN
METAR KAPN 272054Z AUTO 23007KT 10SM UP CLR M07/M18 A3044 RMK AO2
SLP327 P0000 60000 T10721183 55003





000
SAUS43 KAPX 271955
MTRAPN
METAR KAPN 271954Z AUTO 27009KT 10SM UP FEW045 M07/M18 A3043 RMK AO2
SLP324 P0000 T10721183





000
SAUS43 KAPX 271855
MTRAPN
METAR KAPN 271854Z AUTO 24008KT 220V280 10SM UP CLR M08/M18 A3044
RMK AO2 SLP327 P0000 T10781178





000
SAUS43 KAPX 271855
MTRAPN
METAR KAPN 271854Z AUTO 24008KT 220V280 10SM UP CLR M08/M18 A3044
RMK AO2 SLP327 P0000 T10781178





000
SAUS43 KAPX 271755
MTRAPN
METAR KAPN 271754Z AUTO 24012KT 10SM UP CLR M09/M18 A3045 RMK AO2
SLP331 P0000 60000 T10941183 11094 21283 58001





000
SAUS43 KAPX 271755
MTRAPN
METAR KAPN 271754Z AUTO 24012KT 10SM UP CLR M09/M18 A3045 RMK AO2
SLP331 P0000 60000 T10941183 11094 21283 58001





000
SAUS43 KAPX 271655
MTRAPN
METAR KAPN 271654Z AUTO 23008KT 10SM UP CLR M11/M19 A3046 RMK AO2
SLP334 P0000 T11061189





000
SAUS43 KAPX 271655
MTRAPN
METAR KAPN 271654Z AUTO 23008KT 10SM UP CLR M11/M19 A3046 RMK AO2
SLP334 P0000 T11061189





000
SAUS43 KAPX 271555
MTRAPN
METAR KAPN 271554Z AUTO 26008KT 240V300 10SM UP CLR M12/M19 A3046
RMK AO2 SLP333 P0000 T11221194





000
SAUS43 KAPX 271455
MTRAPN
METAR KAPN 271454Z AUTO 25007KT 10SM UP CLR M16/M21 A3046 RMK AO2
UPB41 SLP334 P0000 60000 T11561206 51015





000
SAUS43 KAPX 271455
MTRAPN
METAR KAPN 271454Z AUTO 25007KT 10SM UP CLR M16/M21 A3046 RMK AO2
UPB41 SLP334 P0000 60000 T11561206 51015





000
SAUS43 KAPX 271355
MTRAPN
METAR KAPN 271354Z AUTO 23004KT 10SM CLR M18/M22 A3045 RMK AO2
SLP332 T11831222





000
SAUS43 KAPX 271355
MTRAPN
METAR KAPN 271354Z AUTO 23004KT 10SM CLR M18/M22 A3045 RMK AO2
SLP332 T11831222





000
SAUS43 KAPX 271255
MTRAPN
METAR KAPN 271254Z AUTO 26003KT 10SM CLR M27/M29 A3042 RMK AO2
SLP327 T12671289





000
SAUS43 KAPX 271155
MTRAPN
METAR KAPN 271154Z AUTO 25003KT 10SM CLR M28/M32 A3041 RMK AO2
SLP322 7//// T12831317 11211 21283 53016





000
SAUS43 KAPX 271056
MTRAPN
METAR KAPN 271054Z AUTO 25003KT 10SM CLR M28/M31 A3040 RMK AO2
SLP316 T12781311





000
SAUS43 KAPX 270955
MTRAPN
METAR KAPN 270954Z AUTO 28003KT 10SM CLR M25/M28 A3038 RMK AO2
SLP309 T12501283





000
SAUS43 KAPX 270855
MTRAPN
METAR KAPN 270854Z AUTO 27004KT 10SM CLR M22/M24 A3036 RMK AO2
SLP303 T12221244 50004





000
SAUS43 KAPX 270755
MTRAPN
METAR KAPN 270754Z AUTO 27006KT 10SM CLR M22/M25 A3037 RMK AO2
SLP303 T12221250





000
SAUS43 KAPX 270655
MTRAPN
METAR KAPN 270654Z AUTO 25004KT 10SM CLR M22/M25 A3037 RMK AO2
SLP304 T12221250





000
SAUS43 KAPX 270555
MTRAPN
METAR KAPN 270554Z AUTO 25003KT 10SM CLR M21/M24 A3035 RMK AO2
SLP298 T12111244 11161 21217 51009





000
SAUS43 KAPX 270455
MTRAPN
METAR KAPN 270454Z AUTO 28005KT 10SM CLR M21/M24 A3034 RMK AO2
SLP294 T12061244 410611228





000
SAUS43 KAPX 270455
MTRAPN
METAR KAPN 270454Z AUTO 28005KT 10SM CLR M21/M24 A3034 RMK AO2
SLP294 T12061244 410611228





000
SAUS43 KAPX 270355
MTRAPN
METAR KAPN 270354Z AUTO 29006KT 10SM CLR M19/M24 A3034 RMK AO2
SLP294 T11941244





000
SAUS43 KAPX 270255
MTRAPN
METAR KAPN 270254Z AUTO 27005KT 10SM CLR M20/M25 A3032 RMK AO2
SLP287 T12001250 51017





000
SAUS43 KAPX 270155
MTRAPN
METAR KAPN 270154Z AUTO 27004KT 10SM CLR M20/M24 A3031 RMK AO2
SLP285 T12001244





000
SAUS43 KAPX 270055
MTRAPN
METAR KAPN 270054Z AUTO 00000KT 10SM CLR M19/M24 A3029 RMK AO2
SLP280 T11891244





000
SAUS43 KAPX 262355
MTRAPN
METAR KAPN 262354Z AUTO 31003KT 10SM CLR M16/M23 A3027 RMK AO2
SLP273 T11611228 11133 21167 53014





000
SAUS43 KAPX 262355
MTRAPN
METAR KAPN 262354Z AUTO 31003KT 10SM CLR M16/M23 A3027 RMK AO2
SLP273 T11611228 11133 21167 53014





000
SAUS43 KAPX 262255
MTRAPN
METAR KAPN 262254Z AUTO 34008KT 10SM CLR M15/M22 A3026 RMK AO2
SLP266 T11501222





000
SAUS43 KAPX 262255
MTRAPN
METAR KAPN 262254Z AUTO 34008KT 10SM CLR M15/M22 A3026 RMK AO2
SLP266 T11501222





000
SAUS43 KAPX 262155
MTRAPN
METAR KAPN 262154Z AUTO 34010KT 10SM CLR M14/M22 A3024 RMK AO2
SLP261 T11391217





000
SAUS43 KAPX 262155
MTRAPN
METAR KAPN 262154Z AUTO 34010KT 10SM CLR M14/M22 A3024 RMK AO2
SLP261 T11391217





000
SAUS43 KAPX 262055
MTRAPN
METAR KAPN 262054Z AUTO 34010KT 10SM CLR M13/M22 A3023 RMK AO2
SLP257 T11331217 55004





000
SAUS43 KAPX 261955
MTRAPN
METAR KAPN 261954Z AUTO 01011KT 10SM FEW034 M14/M21 A3023 RMK AO2
SLP257 T11391206





000
SAUS43 KAPX 261855
MTRAPN
METAR KAPN 261854Z AUTO 36010KT 10SM BKN033 M13/M20 A3024 RMK AO2
SLP259 T11331200





000
SAUS43 KAPX 261515
MTRAPN
SPECI KAPN 261514Z AUTO 03007KT 10SM UP SCT017 SCT023 BKN033 M09/M20
A3024 RMK AO2 UPB14 P0000 T10891200





000
SAUS43 KAPX 261506
MTRAPN
SPECI KAPN 261505Z AUTO 01007KT 8SM BKN018 M09/M21 A3024 RMK AO2
T10941206





000
SAUS43 KAPX 261506
MTRAPN
SPECI KAPN 261505Z AUTO 01007KT 8SM BKN018 M09/M21 A3024 RMK AO2
T10941206





000
SAUS43 KAPX 261455
MTRAPN
METAR KAPN 261454Z AUTO 01008KT 10SM FEW018 M12/M21 A3024 RMK AO2
SLP257 T11171206 51022





000
SAUS43 KAPX 261355
MTRAPN
METAR KAPN 261354Z AUTO 34007KT 10SM CLR M16/M22 A3022 RMK AO2
SLP253 T11611217





000
SAUS43 KAPX 261255
MTRAPN
METAR KAPN 261254Z AUTO 00000KT 10SM CLR M22/M25 A3019 RMK AO2
SLP244 T12171250





000
SAUS43 KAPX 261255
MTRAPN
METAR KAPN 261254Z AUTO 00000KT 10SM CLR M22/M25 A3019 RMK AO2
SLP244 T12171250





000
SAUS43 KAPX 261155
MTRAPN
METAR KAPN 261154Z AUTO 30003KT 10SM CLR M23/M25 A3017 RMK AO2
SLP239 60000 T12281250 11172 21228 53008





000
SAUS43 KAPX 261155
MTRAPN
METAR KAPN 261154Z AUTO 30003KT 10SM CLR M23/M25 A3017 RMK AO2
SLP239 60000 T12281250 11172 21228 53008





000
SAUS43 KAPX 261055
MTRAPN
METAR KAPN 261054Z AUTO 29004KT 10SM CLR M22/M24 A3016 RMK AO2
SNB01E17 SLP234 P0000 T12171239





000
SAUS43 KAPX 261055
MTRAPN
METAR KAPN 261054Z AUTO 29004KT 10SM CLR M22/M24 A3016 RMK AO2
SNB01E17 SLP234 P0000 T12171239





000
SAUS43 KAPX 261027
MTRAPN
SPECI KAPN 261026Z AUTO 29005KT 10SM FEW014 SCT026 M21/M23 A3016 RMK
AO2 SNB01E17 P0000 T12111233





000
SAUS43 KAPX 260955
MTRAPN
METAR KAPN 260954Z AUTO 30004KT 10SM OVC026 M21/M23 A3015 RMK AO2
SLP228 T12061233





000
SAUS43 KAPX 260955
MTRAPN
METAR KAPN 260954Z AUTO 30004KT 10SM OVC026 M21/M23 A3015 RMK AO2
SLP228 T12061233





000
SAUS43 KAPX 260855
MTRAPN
METAR KAPN 260854Z AUTO 29004KT 9SM BKN023 M21/M23 A3015 RMK AO2
SLP227 T12061228 50001





000
SAUS43 KAPX 260855
MTRAPN
METAR KAPN 260854Z AUTO 29004KT 9SM BKN023 M21/M23 A3015 RMK AO2
SLP227 T12061228 50001





000
SAUS43 KAPX 260756
MTRAPN
METAR KAPN 260754Z AUTO 29006KT 10SM OVC023 M20/M23 A3016 RMK AO2
SLP230 T12001228





000
SAUS43 KAPX 260713
MTRAPN
SPECI KAPN 260712Z AUTO 27005KT 10SM BKN023 M20/M23 A3016 RMK AO2
T12001228





000
SAUS43 KAPX 260713
MTRAPN
SPECI KAPN 260712Z AUTO 27005KT 10SM BKN023 M20/M23 A3016 RMK AO2
T12001228





000
SAUS43 KAPX 260655
MTRAPN
METAR KAPN 260654Z AUTO 28005KT 10SM FEW022 M19/M22 A3016 RMK AO2
SLP229 T11941222





000
SAUS43 KAPX 260655
MTRAPN
METAR KAPN 260654Z AUTO 28005KT 10SM FEW022 M19/M22 A3016 RMK AO2
SLP229 T11941222





000
SAUS43 KAPX 260555
MTRAPN
METAR KAPN 260554Z AUTO 32007KT 10SM CLR M17/M22 A3014 RMK AO2
SLP225 T11721217 11150 21172 53006





000
SAUS43 KAPX 260555
MTRAPN
METAR KAPN 260554Z AUTO 32007KT 10SM CLR M17/M22 A3014 RMK AO2
SLP225 T11721217 11150 21172 53006





000
SAUS43 KAPX 260455
MTRAPN
METAR KAPN 260454Z AUTO 32008KT 10SM CLR M17/M21 A3014 RMK AO2
SLP224 T11721211 410671189





000
SAUS43 KAPX 260455
MTRAPN
METAR KAPN 260454Z AUTO 32008KT 10SM CLR M17/M21 A3014 RMK AO2
SLP224 T11721211 410671189





000
SAUS43 KAPX 260355
MTRAPN
METAR KAPN 260354Z AUTO 33005KT 10SM SCT023 M17/M21 A3013 RMK AO2
SLP219 T11721211





000
SAUS43 KAPX 260352
MTRAPN
SPECI KAPN 260351Z AUTO 33005KT 10SM SCT024 M17/M21 A3013 RMK AO2





000
SAUS43 KAPX 260352
MTRAPN
SPECI KAPN 260351Z AUTO 33005KT 10SM SCT024 M17/M21 A3013 RMK AO2





000
SAUS43 KAPX 260255
MTRAPN
METAR KAPN 260254Z AUTO 32006KT 10SM OVC029 M17/M22 A3011 RMK AO2
SLP215 T11671222 51020





000
SAUS43 KAPX 260255
MTRAPN
METAR KAPN 260254Z AUTO 32006KT 10SM OVC029 M17/M22 A3011 RMK AO2
SLP215 T11671222 51020





000
SAUS43 KAPX 260232
MTRAPN
SPECI KAPN 260231Z AUTO 31006KT 10SM BKN029 M16/M22 A3012 RMK AO2
T11611222





000
SAUS43 KAPX 260232
MTRAPN
SPECI KAPN 260231Z AUTO 31006KT 10SM BKN029 M16/M22 A3012 RMK AO2
T11611222





000
SAUS43 KAPX 260155
MTRAPN
METAR KAPN 260154Z AUTO 30005KT 10SM CLR M17/M23 A3010 RMK AO2
SLP212 T11671228





000
SAUS43 KAPX 260055
MTRAPN
METAR KAPN 260054Z AUTO 32007KT 10SM CLR M16/M23 A3008 RMK AO2
SLP205 T11561228





000
SAUS43 KAPX 260055
MTRAPN
METAR KAPN 260054Z AUTO 32007KT 10SM CLR M16/M23 A3008 RMK AO2
SLP205 T11561228





000
SAUS43 KAPX 252355
MTRAPN
METAR KAPN 252354Z AUTO 32005KT 10SM CLR M16/M23 A3006 RMK AO2
SLP197 T11561228 11067 21156 53023





000
SAUS43 KAPX 252355
MTRAPN
METAR KAPN 252354Z AUTO 32005KT 10SM CLR M16/M23 A3006 RMK AO2
SLP197 T11561228 11067 21156 53023





000
SAUS43 KAPX 252255
MTRAPN
METAR KAPN 252254Z AUTO 33011KT 10SM CLR M13/M22 A3002 RMK AO2
SLP183 T11281217





000
SAUS43 KAPX 252255
MTRAPN
METAR KAPN 252254Z AUTO 33011KT 10SM CLR M13/M22 A3002 RMK AO2
SLP183 T11281217





000
SAUS43 KAPX 252155
MTRAPN
METAR KAPN 252154Z AUTO 32008KT 10SM CLR M08/M21 A3000 RMK AO2
SLP174 T10831211





000
SAUS43 KAPX 252155
MTRAPN
METAR KAPN 252154Z AUTO 32008KT 10SM CLR M08/M21 A3000 RMK AO2
SLP174 T10831211





000
SAUS43 KAPX 252055
MTRAPN
METAR KAPN 252054Z AUTO 31009KT 10SM CLR M08/M21 A2999 RMK AO2
SLP170 T10781211 52003





000
SAUS43 KAPX 252055
MTRAPN
METAR KAPN 252054Z AUTO 31009KT 10SM CLR M08/M21 A2999 RMK AO2
SLP170 T10781211 52003





000
SAUS43 KAPX 251955
MTRAPN
METAR KAPN 251954Z AUTO VRB06KT 10SM FEW039 M07/M21 A2998 RMK AO2
SLP169 T10671211





000
SAUS43 KAPX 251855
MTRAPN
METAR KAPN 251854Z AUTO 32009G15KT 10SM CLR M08/M22 A2998 RMK AO2
SLP168 T10831217





000
SAUS43 KAPX 251655
MTRAPN
METAR KAPN 251654Z AUTO 31007G17KT 270V350 10SM SCT035 M10/M22 A2998
RMK AO2 SLP168 T11001222





000
SAUS43 KAPX 251555
MTRAPN
METAR KAPN 251554Z AUTO 29009G16KT 10SM SCT034 M12/M23 A2996 RMK AO2
SLP161 T11171228





000
SAUS43 KAPX 251455
MTRAPN
METAR KAPN 251454Z AUTO 31008KT 10SM CLR M12/M23 A2995 RMK AO2
SLP158 60000 T11221228 51026





000
SAUS43 KAPX 251355
MTRAPN
METAR KAPN 251354Z AUTO 29006KT 10SM CLR M14/M23 A2993 RMK AO2
UPB45E52 SLP150 P0000 T11441228





000
SAUS43 KAPX 251355
MTRAPN
METAR KAPN 251354Z AUTO 29006KT 10SM CLR M14/M23 A2993 RMK AO2
UPB45E52 SLP150 P0000 T11441228





000
SAUS43 KAPX 251255
MTRAPN
METAR KAPN 251254Z AUTO 27004KT 10SM CLR M17/M23 A2990 RMK AO2
SLP138 T11721233





000
SAUS43 KAPX 251255
MTRAPN
METAR KAPN 251254Z AUTO 27004KT 10SM CLR M17/M23 A2990 RMK AO2
SLP138 T11721233





000
SAUS43 KAPX 251155
MTRAPN
METAR KAPN 251154Z AUTO 28007KT 6SM HZ CLR M19/M23 A2987 RMK AO2
SLP132 60000 70003 T11891233 11156 21189 53037





000
SAUS43 KAPX 251055
MTRAPN
METAR KAPN 251054Z AUTO 29009KT 10SM CLR M18/M24 A2984 RMK AO2
UPB02E09 SLP119 P0000 T11831239 $





000
SAUS43 KAPX 250955
MTRAPN
METAR KAPN 250954Z AUTO 30008KT 10SM CLR M18/M23 A2979 RMK AO2
SLP101 T11781233 $





000
SAUS43 KAPX 250855
MTRAPN
METAR KAPN 250854Z AUTO 31009G19KT 10SM CLR M17/M23 A2976 RMK AO2
UPB14E22 SLP093 P0000 60000 T11721233 53027 $





000
SAUS43 KAPX 250755
MTRAPN
METAR KAPN 250754Z AUTO 30009G17KT 10SM CLR M17/M22 A2974 RMK AO2
UPE39 SLP084 P0000 T11671222 $





000
SAUS43 KAPX 250655
MTRAPN
METAR KAPN 250654Z AUTO 29011G17KT 10SM UP CLR M16/M22 A2970 RMK AO2
UPE03B29 SLP073 P0000 T11611217 $





000
SAUS43 KAPX 250555
MTRAPN
METAR KAPN 250554Z AUTO 29011G19KT 10SM UP CLR M16/M21 A2968 RMK AO2
PK WND 31027/0525 UPB26 SLP065 P0000 60002 T11561206 10033 21156
51038 $





000
SAUS43 KAPX 250455
MTRAPN
METAR KAPN 250454Z AUTO 29014G22KT 10SM CLR M14/M18 A2966 RMK AO2
UPE21B31E47 SLP056 P0000 T11391183 400331139 $





000
SAUS43 KAPX 250355
MTRAPN
METAR KAPN 250354Z AUTO 29008KT 10SM UP SCT020 BKN080 OVC095 M11/M16
A2961 RMK AO2 UPB21E35B53SNE21 SLP042 P0000 T11111156 $





000
SAUS43 KAPX 250355
MTRAPN
METAR KAPN 250354Z AUTO 29008KT 10SM UP SCT020 BKN080 OVC095 M11/M16
A2961 RMK AO2 UPB21E35B53SNE21 SLP042 P0000 T11111156 $





000
SAUS43 KAPX 250256
MTRAPN
METAR KAPN 250254Z AUTO 32009KT 5SM -SN BKN047 OVC075 M08/M12 A2956
RMK AO2 PK WND 32026/0219 UPE0155SNB0155E27B48 SLP024 P0000 60002
T10781122 53041 $





000
SAUS43 KAPX 250256
MTRAPN
METAR KAPN 250254Z AUTO 32009KT 5SM -SN BKN047 OVC075 M08/M12 A2956
RMK AO2 PK WND 32026/0219 UPE0155SNB0155E27B48 SLP024 P0000 60002
T10781122 53041 $





000
SAUS43 KAPX 250230
MTRAPN
SPECI KAPN 250229Z AUTO 32012G22KT 8SM FEW012 BKN046 OVC070 M09/M12
A2955 RMK AO2 PK WND 32026/0219 UPE0155SNB0155E27 P0000 T10891122 $





000
SAUS43 KAPX 250230
MTRAPN
SPECI KAPN 250229Z AUTO 32012G22KT 8SM FEW012 BKN046 OVC070 M09/M12
A2955 RMK AO2 PK WND 32026/0219 UPE0155SNB0155E27 P0000 T10891122 $





000
SAUS43 KAPX 250223
MTRAPN
SPECI KAPN 250221Z AUTO 32015G26KT 3SM -SN SCT014 BKN018 OVC065
M09/M12 A2955 RMK AO2 PK WND 32026/0219 UPE0155SNB0155 P0000
T10891117 $





000
SAUS43 KAPX 250223
MTRAPN
SPECI KAPN 250221Z AUTO 32015G26KT 3SM -SN SCT014 BKN018 OVC065
M09/M12 A2955 RMK AO2 PK WND 32026/0219 UPE0155SNB0155 P0000
T10891117 $





000
SAUS43 KAPX 250215
MTRAPN
SPECI KAPN 250214Z AUTO 33016G24KT 1 3/4SM -SN BR SCT014 BKN018
OVC070 M09/M11 A2954 RMK AO2 UPE0155SNB0155 P0000 T10891106 $





    US Dept of Commerce
    National Oceanic and Atmospheric Administration
    National Weather Service
    1325 East West Highway
    Silver Spring, MD 20910
    Page Author: NWS Internet Services Team
Disclaimer
Information Quality
Credits
Glossary
Privacy Policy
Freedom of Information Act (FOIA)
About Us
Career Opportunities